Terminal Aerodrome Forecast
Issued by NWS Cleveland, OH

Home | Current Version | Previous Version | Graphics & Text | Print | Product List | Glossary On
Versions: 1 2 3 4 5 6 7 8 9 10 11 12 13 14
566
FTUS41 KCLE 211120
TAFYNG
TAF
KYNG 211120Z 2112/2212 12005KT P6SM BKN250
     FM211700 16007KT P6SM BKN250
     FM220200 14006KT P6SM SCT250=

USA.gov is the U.S. government's official web portal to all federal, state and local government web resources and services.